createdAt,value
2023-04-30T00:04:40.644Z,100.00
2023-04-30T00:09:43.120Z,100.00
2023-04-30T00:14:45.491Z,100.00
2023-04-30T00:19:48.276Z,100.00
2023-04-30T00:24:51.042Z,100.00
2023-04-30T00:29:54.022Z,100.00
2023-04-30T00:34:56.479Z,100.00
2023-04-30T00:39:59.196Z,100.00
2023-04-30T00:45:01.844Z,100.00
2023-04-30T00:50:04.889Z,100.00
2023-04-30T00:55:07.749Z,100.00
2023-04-30T01:00:11.620Z,100.00
2023-04-30T01:05:14.579Z,100.00
2023-04-30T01:10:17.311Z,100.00
2023-04-30T01:15:20.148Z,100.00
2023-04-30T01:20:22.468Z,100.00
2023-04-30T01:25:24.875Z,100.00
2023-04-30T01:30:27.278Z,100.00
2023-04-30T01:35:29.621Z,100.00
2023-04-30T01:40:32.413Z,100.00
2023-04-30T01:45:34.932Z,100.00
2023-04-30T01:50:37.762Z,100.00
2023-04-30T01:55:40.460Z,100.00
2023-04-30T02:00:43.203Z,100.00
2023-04-30T02:05:45.993Z,100.00
2023-04-30T02:10:48.783Z,100.00
2023-04-30T02:15:51.436Z,100.00
2023-04-30T02:20:54.095Z,100.00
2023-04-30T02:25:56.529Z,100.00
2023-04-30T02:30:59.298Z,100.00
2023-04-30T02:36:01.961Z,100.00
2023-04-30T02:41:04.795Z,100.00
2023-04-30T02:46:07.661Z,100.00
2023-04-30T02:51:10.501Z,100.00
2023-04-30T02:56:12.931Z,100.00
2023-04-30T03:01:15.574Z,100.00
2023-04-30T03:06:17.993Z,100.00
2023-04-30T03:11:21.369Z,100.00
2023-04-30T03:16:23.785Z,100.00
2023-04-30T03:21:26.157Z,100.00
2023-04-30T03:26:28.497Z,100.00
2023-04-30T03:31:31.343Z,100.00
2023-04-30T03:36:34.160Z,100.00
2023-04-30T03:41:36.475Z,100.00
2023-04-30T03:46:38.862Z,100.00
2023-04-30T03:51:42.333Z,100.00
2023-04-30T03:56:44.818Z,100.00
2023-04-30T04:01:47.602Z,100.00
2023-04-30T04:06:50.394Z,100.00
2023-04-30T04:11:53.218Z,100.00
2023-04-30T04:16:56.026Z,100.00
2023-04-30T04:21:58.826Z,100.00
2023-04-30T04:27:02.899Z,100.00
2023-04-30T04:32:06.489Z,100.00
2023-04-30T04:37:08.989Z,100.00
2023-04-30T04:42:11.971Z,100.00
2023-04-30T04:47:14.696Z,100.00
2023-04-30T04:52:17.112Z,100.00
2023-04-30T04:57:19.834Z,100.00
2023-04-30T05:02:23.452Z,100.00
2023-04-30T05:07:25.990Z,100.00
2023-04-30T05:12:28.412Z,100.00
2023-04-30T05:17:31.156Z,100.00
2023-04-30T05:22:33.648Z,100.00
2023-04-30T05:27:36.091Z,100.00
2023-04-30T05:32:38.455Z,100.00
2023-04-30T05:37:40.974Z,100.00
2023-04-30T05:42:43.839Z,100.00
2023-04-30T05:47:46.257Z,100.00
2023-04-30T05:52:48.549Z,100.00
2023-04-30T05:57:50.889Z,100.00
2023-04-30T06:02:53.962Z,100.00
2023-04-30T06:07:56.580Z,100.00
2023-04-30T06:12:58.965Z,100.00
2023-04-30T06:18:01.440Z,100.00
2023-04-30T06:23:04.072Z,100.00
2023-04-30T06:28:08.302Z,100.00
2023-04-30T06:33:10.877Z,100.00
2023-04-30T06:38:13.227Z,100.00
2023-04-30T06:43:15.697Z,100.00
2023-04-30T06:48:18.135Z,100.00
2023-04-30T06:53:20.602Z,100.00
2023-04-30T06:58:22.891Z,100.00
2023-04-30T07:03:25.446Z,100.00
2023-04-30T07:08:27.956Z,100.00
2023-04-30T07:13:30.636Z,100.00
2023-04-30T07:18:32.981Z,100.00
2023-04-30T07:23:35.349Z,100.00
2023-04-30T07:28:37.799Z,100.00
2023-04-30T07:33:40.175Z,100.00
2023-04-30T07:38:42.521Z,100.00
2023-04-30T07:43:45.084Z,100.00
2023-04-30T07:48:47.535Z,100.00
2023-04-30T07:53:49.864Z,100.00
2023-04-30T07:58:52.292Z,100.00
2023-04-30T08:03:54.695Z,100.00
2023-04-30T08:08:57.228Z,100.00
2023-04-30T08:13:59.552Z,100.00
2023-04-30T08:19:02.022Z,100.00
2023-04-30T08:24:04.447Z,100.00
2023-04-30T08:29:08.258Z,100.00
2023-04-30T08:34:10.587Z,100.00
2023-04-30T08:39:12.975Z,100.00
2023-04-30T08:44:15.487Z,100.00
2023-04-30T08:49:17.860Z,100.00
2023-04-30T08:54:20.941Z,100.00
2023-04-30T08:59:23.313Z,100.00
2023-04-30T09:04:25.704Z,100.00
2023-04-30T09:09:28.064Z,100.00
2023-04-30T09:14:30.406Z,100.00
2023-04-30T09:19:33.089Z,100.00
2023-04-30T09:24:36.211Z,100.00
2023-04-30T09:29:38.954Z,100.00
2023-04-30T09:34:41.825Z,100.00
2023-04-30T09:39:44.288Z,100.00
2023-04-30T09:44:46.646Z,100.00
2023-04-30T09:49:51.562Z,100.00
2023-04-30T09:54:54.462Z,100.00
2023-04-30T09:59:58.493Z,100.00
2023-04-30T10:05:01.709Z,100.00
2023-04-30T10:10:04.966Z,100.00
2023-04-30T10:15:07.379Z,100.00
2023-04-30T10:20:09.866Z,100.00
2023-04-30T10:25:13.635Z,100.00
2023-04-30T10:30:16.617Z,100.00
2023-04-30T10:35:19.523Z,100.00
2023-04-30T10:40:21.917Z,100.00
2023-04-30T10:45:24.580Z,100.00
2023-04-30T10:50:27.015Z,100.00
2023-04-30T10:55:29.904Z,100.00
2023-04-30T11:00:32.702Z,100.00
2023-04-30T11:05:35.688Z,100.00
2023-04-30T11:10:38.032Z,100.00
2023-04-30T11:15:40.542Z,100.00
2023-04-30T11:20:43.081Z,100.00
2023-04-30T11:25:45.473Z,97.59
2023-04-30T11:30:47.868Z,95.10
2023-04-30T11:35:52.707Z,90.93
2023-04-30T11:40:56.480Z,98.81
2023-04-30T11:45:59.012Z,100.00
2023-04-30T11:51:01.406Z,100.00
2023-04-30T11:56:03.785Z,100.00
2023-04-30T12:01:06.485Z,98.66
2023-04-30T12:06:09.106Z,99.81
2023-04-30T12:11:14.614Z,100.00
2023-04-30T12:16:17.613Z,98.77
2023-04-30T12:21:20.296Z,100.00
2023-04-30T12:26:22.644Z,99.85
2023-04-30T12:31:25.074Z,100.00
2023-04-30T12:36:27.707Z,98.48
2023-04-30T12:41:30.153Z,100.00
2023-04-30T12:46:32.924Z,99.87
2023-04-30T12:51:35.599Z,100.00
2023-04-30T12:56:38.815Z,96.13
2023-04-30T13:01:41.240Z,93.23
2023-04-30T13:06:43.719Z,99.07
2023-04-30T13:11:47.205Z,96.63
2023-04-30T13:16:49.598Z,97.93
2023-04-30T13:21:51.988Z,100.00
2023-04-30T13:26:54.349Z,100.00
2023-04-30T13:31:57.029Z,99.08
2023-04-30T13:36:59.589Z,97.85
2023-04-30T13:42:02.283Z,92.71
2023-04-30T13:47:04.638Z,91.41
2023-04-30T13:52:07.013Z,89.63
2023-04-30T13:57:09.452Z,91.00
2023-04-30T14:02:11.927Z,91.55
2023-04-30T14:07:14.249Z,90.99
2023-04-30T14:12:16.605Z,92.77
2023-04-30T14:17:18.952Z,88.16
2023-04-30T14:22:21.496Z,88.39
2023-04-30T14:27:24.129Z,88.72
2023-04-30T14:32:26.601Z,92.30
2023-04-30T14:37:29.553Z,92.71
2023-04-30T14:42:31.952Z,91.22
2023-04-30T14:47:34.344Z,94.72
2023-04-30T14:52:37.074Z,92.22
2023-04-30T14:57:39.437Z,90.81
2023-04-30T15:02:41.951Z,91.15
2023-04-30T15:07:44.379Z,87.18
2023-04-30T15:12:46.743Z,88.64
2023-04-30T15:17:49.374Z,89.52
2023-04-30T15:22:53.726Z,90.29
2023-04-30T15:27:56.049Z,86.49
2023-04-30T15:32:58.553Z,89.36
2023-04-30T15:38:01.077Z,93.92
2023-04-30T15:43:03.438Z,94.37
2023-04-30T15:48:05.780Z,95.01
2023-04-30T15:53:08.425Z,92.10
2023-04-30T15:58:10.862Z,94.40
2023-04-30T16:03:13.278Z,94.24
2023-04-30T16:08:16.156Z,94.01
2023-04-30T16:13:19.174Z,92.93
2023-04-30T16:18:21.602Z,94.12
2023-04-30T16:23:24.692Z,95.49
2023-04-30T16:28:28.319Z,94.96
2023-04-30T16:33:31.197Z,93.71
2023-04-30T16:38:33.949Z,94.11
2023-04-30T16:43:36.287Z,94.09
2023-04-30T16:48:39.056Z,95.56
2023-04-30T16:53:41.413Z,97.71
2023-04-30T16:58:43.825Z,99.86
2023-04-30T17:03:46.417Z,100.00
2023-04-30T17:08:49.197Z,100.00
2023-04-30T17:13:53.742Z,99.42
2023-04-30T17:18:57.046Z,99.54
2023-04-30T17:23:59.575Z,98.91
2023-04-30T17:29:01.876Z,99.62
2023-04-30T17:34:13.980Z,99.35
2023-04-30T17:39:23.812Z,100.00
2023-04-30T17:44:26.123Z,100.00
2023-04-30T17:49:28.560Z,100.00
2023-04-30T17:54:31.027Z,100.00
2023-04-30T17:59:33.406Z,100.00
2023-04-30T18:04:36.595Z,100.00
2023-04-30T18:09:39.298Z,100.00
2023-04-30T18:14:41.702Z,100.00
2023-04-30T18:19:44.707Z,100.00
2023-04-30T18:24:47.152Z,100.00
2023-04-30T18:29:50.318Z,100.00
2023-04-30T18:34:53.019Z,100.00
2023-04-30T18:39:56.434Z,100.00
2023-04-30T18:44:59.195Z,100.00
2023-04-30T18:50:01.872Z,100.00
2023-04-30T18:55:06.527Z,100.00
2023-04-30T19:00:09.164Z,100.00
2023-04-30T19:05:11.537Z,100.00
2023-04-30T19:10:14.152Z,100.00
2023-04-30T19:15:17.832Z,100.00
2023-04-30T19:20:20.251Z,100.00
2023-04-30T19:25:23.433Z,100.00
2023-04-30T19:30:25.813Z,100.00
2023-04-30T19:35:28.295Z,100.00
2023-04-30T19:40:30.669Z,100.00
2023-04-30T19:45:32.958Z,100.00
2023-04-30T19:50:35.353Z,100.00
2023-04-30T19:55:37.721Z,100.00
2023-04-30T20:00:40.077Z,100.00
2023-04-30T20:05:42.731Z,100.00
2023-04-30T20:10:46.959Z,100.00
2023-04-30T20:15:49.533Z,100.00
2023-04-30T20:20:52.291Z,100.00
2023-04-30T20:25:55.303Z,100.00
2023-04-30T20:30:57.904Z,100.00
2023-04-30T20:36:00.385Z,100.00
2023-04-30T20:41:03.358Z,100.00
2023-04-30T20:46:05.836Z,100.00
2023-04-30T20:51:08.216Z,100.00
2023-04-30T20:56:12.127Z,100.00
2023-04-30T21:01:14.572Z,100.00
2023-04-30T21:06:17.219Z,100.00
2023-04-30T21:11:20.480Z,100.00
2023-04-30T21:16:23.262Z,100.00
2023-04-30T21:21:25.681Z,100.00
2023-04-30T21:26:28.110Z,100.00
2023-04-30T21:31:30.631Z,100.00
2023-04-30T21:36:33.000Z,100.00
2023-04-30T21:41:35.343Z,100.00
2023-04-30T21:46:38.280Z,100.00
2023-04-30T21:51:40.673Z,100.00
2023-04-30T21:56:43.077Z,100.00
2023-04-30T22:01:45.945Z,100.00
2023-04-30T22:06:48.423Z,100.00
2023-04-30T22:11:51.689Z,100.00
2023-04-30T22:16:54.337Z,100.00
2023-04-30T22:21:56.654Z,100.00
2023-04-30T22:26:58.997Z,100.00
2023-04-30T22:32:01.654Z,100.00
2023-04-30T22:37:04.431Z,100.00
2023-04-30T22:42:07.048Z,100.00
2023-04-30T22:47:09.473Z,100.00
2023-04-30T22:52:11.964Z,100.00
2023-04-30T22:57:14.401Z,100.00
2023-04-30T23:02:16.756Z,100.00
2023-04-30T23:07:19.149Z,100.00
2023-04-30T23:12:22.671Z,100.00
2023-04-30T23:17:25.151Z,100.00
2023-04-30T23:22:27.693Z,100.00
2023-04-30T23:27:30.527Z,100.00
2023-04-30T23:32:33.298Z,100.00
2023-04-30T23:37:35.930Z,100.00
2023-04-30T23:42:38.383Z,100.00
2023-04-30T23:47:40.796Z,100.00
2023-04-30T23:52:44.067Z,100.00
2023-04-30T23:57:46.380Z,100.00
